Time;durP1;ratioP1;P1;durP2;ratioP2;P2;SDS_P1;SDS_P2;PMS_P1;PMS_P2;Temp;Humidity;BMP_temperature;BMP_pressure;BME280_temperature;BME280_humidity;BME280_pressure;Samples;Min_cycle;Max_cycle;Signal;HPM_P1;HPM_P2
2023/08/15 00:01:52;;;;;;;2.80;2.60;;;25.40;79.10;24.90;96450.00;;;;5053805;28;20193;-78
2023/08/15 00:04:20;;;;;;;2.67;2.47;;;25.40;79.10;24.90;96455.00;;;;5054547;28;20247;-78
2023/08/15 00:06:47;;;;;;;2.50;2.33;;;25.40;79.20;24.90;96448.00;;;;5053628;28;20256;-78
2023/08/15 00:09:14;;;;;;;2.53;2.33;;;25.40;79.30;24.90;96449.00;;;;5054619;28;20717;-78
2023/08/15 00:11:43;;;;;;;2.70;2.50;;;25.30;79.20;24.80;96445.00;;;;5035835;28;20207;-78
2023/08/15 00:14:11;;;;;;;4.40;2.20;;;25.30;79.10;24.80;96448.00;;;;5053079;28;20225;-78
2023/08/15 00:16:38;;;;;;;3.00;2.40;;;25.30;79.20;24.80;96445.00;;;;5052667;28;20200;-78
2023/08/15 00:19:06;;;;;;;2.23;2.10;;;25.30;79.20;24.80;96445.00;;;;5053089;28;20279;-78
2023/08/15 00:21:33;;;;;;;2.43;2.33;;;25.20;79.10;24.70;96452.00;;;;5051592;28;20193;-77
2023/08/15 00:24:01;;;;;;;2.67;2.47;;;25.20;79.20;24.70;96454.00;;;;5052714;28;20227;-78
2023/08/15 00:26:29;;;;;;;2.63;2.43;;;25.20;79.40;24.70;96452.00;;;;5053334;28;20228;-78
2023/08/15 00:28:59;;;;;;;2.43;2.23;;;25.20;79.90;24.70;96450.00;;;;5053394;28;20570;-78
2023/08/15 00:31:26;;;;;;;2.53;2.37;;;25.20;79.80;24.70;96451.00;;;;5054259;28;20193;-78
2023/08/15 00:33:54;;;;;;;2.77;2.40;;;25.10;79.70;24.60;96447.00;;;;5052951;28;20199;-78
2023/08/15 00:36:21;;;;;;;2.80;2.53;;;25.10;79.70;24.60;96449.00;;;;5053444;28;20289;-78
2023/08/15 00:38:48;;;;;;;2.97;2.67;;;25.10;79.70;24.60;96453.00;;;;5053026;28;20283;-78
2023/08/15 00:41:16;;;;;;;2.63;2.53;;;25.10;79.80;24.60;96459.00;;;;5054105;28;20688;-78
2023/08/15 00:43:43;;;;;;;2.30;2.20;;;25.10;79.80;24.60;96456.00;;;;5054367;28;20211;-78
2023/08/15 00:46:12;;;;;;;2.47;2.27;;;25.00;79.80;24.50;96455.00;;;;5047213;28;20231;-78
2023/08/15 00:48:39;;;;;;;2.83;2.60;;;25.00;79.70;24.50;96447.00;;;;5049784;28;20268;-78
2023/08/15 00:51:07;;;;;;;2.97;2.77;;;25.00;79.90;24.50;96449.00;;;;5052895;28;20702;-78
2023/08/15 00:53:36;;;;;;;3.53;3.23;;;25.00;80.20;24.50;96449.00;;;;5052881;28;20262;-77
2023/08/15 00:56:05;;;;;;;2.73;2.53;;;24.90;80.40;24.50;96451.00;;;;5054284;28;20197;-78
2023/08/15 00:58:32;;;;;;;2.87;2.70;;;24.90;80.60;24.50;96443.00;;;;5053946;28;20299;-78
2023/08/15 01:01:00;;;;;;;3.27;3.07;;;24.90;80.70;24.50;96452.00;;;;5033814;28;20279;-78
2023/08/15 01:03:29;;;;;;;3.00;2.80;;;24.90;80.80;24.40;96458.00;;;;5030969;28;20566;-77
2023/08/15 01:05:57;;;;;;;2.70;2.50;;;24.90;80.90;24.40;96452.00;;;;5052663;28;20745;-78
2023/08/15 01:08:24;;;;;;;2.57;2.47;;;24.90;81.10;24.40;96452.00;;;;5051103;28;20673;-78
2023/08/15 01:10:51;;;;;;;2.63;2.43;;;24.90;81.10;24.40;96455.00;;;;5050900;28;20207;-78
2023/08/15 01:13:30;;;;;;;2.60;2.47;;;24.90;81.00;24.40;96457.00;;;;5050472;28;20212;-78
2023/08/15 01:15:58;;;;;;;3.13;2.83;;;24.90;80.90;24.40;96459.00;;;;5051742;28;20231;-77
2023/08/15 01:18:34;;;;;;;3.07;2.87;;;24.90;81.10;24.40;96468.00;;;;5050983;28;20578;-78
2023/08/15 01:21:03;;;;;;;3.00;2.80;;;24.90;81.20;24.40;96464.00;;;;5049051;28;20570;-78
2023/08/15 01:23:43;;;;;;;3.10;2.87;;;24.90;81.40;24.40;96464.00;;;;5047830;28;20279;-78
2023/08/15 01:26:11;;;;;;;2.90;2.70;;;24.90;81.20;24.40;96459.00;;;;5025850;28;20223;-77
2023/08/15 01:28:39;;;;;;;3.20;3.00;;;24.90;81.50;24.40;96460.00;;;;5032544;28;20279;-78
2023/08/15 01:31:15;;;;;;;3.27;3.07;;;24.90;81.40;24.40;96460.00;;;;5052078;28;20188;-78
2023/08/15 01:33:51;;;;;;;3.20;2.90;;;24.80;81.30;24.40;96453.00;;;;5053268;28;20200;-78
2023/08/15 01:36:28;;;;;;;2.97;2.67;;;24.80;81.30;24.40;96459.00;;;;5053185;28;20215;-78
2023/08/15 01:39:01;;;;;;;3.17;2.87;;;24.80;81.30;24.40;96455.00;;;;5036322;28;20300;-78
2023/08/15 01:41:34;;;;;;;3.10;2.90;;;24.80;81.20;24.30;96456.00;;;;5053396;28;20201;-78
2023/08/15 01:44:03;;;;;;;2.87;2.73;;;24.80;81.10;24.30;96456.00;;;;5028294;28;20216;-78
2023/08/15 01:46:31;;;;;;;2.93;2.73;;;24.80;81.30;24.30;96446.00;;;;5055131;28;20312;-78
2023/08/15 01:48:59;;;;;;;3.67;3.23;;;24.80;81.40;24.30;96440.00;;;;5058920;28;20283;-77
2023/08/15 01:51:27;;;;;;;2.77;2.67;;;24.80;81.40;24.30;96438.00;;;;5056349;28;20235;-78
2023/08/15 01:53:56;;;;;;;3.00;2.80;;;24.80;81.50;24.30;96441.00;;;;5052729;28;20279;-78
2023/08/15 01:56:25;;;;;;;4.13;2.70;;;24.80;81.60;24.30;96440.00;;;;5052780;28;20251;-78
2023/08/15 01:58:52;;;;;;;3.03;2.90;;;24.70;81.70;24.30;96445.00;;;;5051405;28;20208;-78
2023/08/15 02:01:19;;;;;;;3.30;3.10;;;24.70;81.40;24.30;96438.00;;;;5051455;28;20196;-78
2023/08/15 02:03:47;;;;;;;2.83;2.70;;;24.70;81.40;24.30;96436.00;;;;5033995;28;20791;-78
2023/08/15 02:06:15;;;;;;;3.20;2.90;;;24.70;81.40;24.30;96437.00;;;;5051061;28;20705;-78
2023/08/15 02:08:42;;;;;;;3.40;3.10;;;24.70;81.40;24.30;96437.00;;;;5049360;28;20276;-78
2023/08/15 02:11:11;;;;;;;2.80;2.60;;;24.70;81.40;24.30;96437.00;;;;5050700;28;20195;-78
2023/08/15 02:13:40;;;;;;;3.17;2.97;;;24.70;81.40;24.30;96433.00;;;;5050499;28;20235;-78
2023/08/15 02:16:07;;;;;;;3.20;3.00;;;24.70;81.50;24.20;96436.00;;;;5048684;28;20295;-78
2023/08/15 02:18:35;;;;;;;2.50;2.40;;;24.70;81.60;24.20;96439.00;;;;5051712;28;20250;-78
2023/08/15 02:21:02;;;;;;;2.57;2.37;;;24.70;81.50;24.20;96436.00;;;;5043665;28;20199;-78
2023/08/15 02:23:29;;;;;;;2.50;2.40;;;24.70;81.50;24.20;96444.00;;;;5051375;28;20208;-78
2023/08/15 02:25:56;;;;;;;2.77;2.57;;;24.70;81.40;24.20;96440.00;;;;5050494;28;20275;-78
2023/08/15 02:28:25;;;;;;;3.27;2.93;;;24.60;81.10;24.10;96434.00;;;;5052590;28;20200;-78
2023/08/15 02:30:53;;;;;;;2.50;2.40;;;24.60;81.10;24.10;96438.00;;;;5051051;28;20196;-78
2023/08/15 02:33:20;;;;;;;2.77;2.57;;;24.60;81.30;24.10;96437.00;;;;5052296;28;20653;-78
2023/08/15 02:35:50;;;;;;;3.10;2.80;;;24.60;81.30;24.10;96434.00;;;;5051508;28;20720;-78
2023/08/15 02:38:17;;;;;;;3.30;3.00;;;24.60;81.40;24.10;96428.00;;;;5035137;28;20228;-77
2023/08/15 02:40:44;;;;;;;2.70;2.57;;;24.60;81.50;24.10;96428.00;;;;5050797;28;20193;-78
2023/08/15 02:43:12;;;;;;;2.67;2.53;;;24.50;81.50;24.10;96431.00;;;;5050505;28;20666;-78
2023/08/15 02:45:40;;;;;;;3.83;2.90;;;24.50;81.40;24.00;96427.00;;;;5050163;28;20227;-78
2023/08/15 02:48:07;;;;;;;3.73;2.80;;;24.50;81.50;24.00;96422.00;;;;5044757;28;20220;-78
2023/08/15 02:50:35;;;;;;;4.03;3.10;;;24.50;81.60;24.00;96426.00;;;;5050647;28;20204;-78
2023/08/15 02:53:02;;;;;;;2.93;2.73;;;24.50;81.70;24.00;96425.00;;;;5034686;28;20721;-78
2023/08/15 02:55:30;;;;;;;3.10;2.90;;;24.50;81.70;24.00;96428.00;;;;5049656;28;20220;-78
2023/08/15 02:57:57;;;;;;;2.93;2.70;;;24.40;81.60;24.00;96421.00;;;;5050538;28;20197;-78
2023/08/15 03:00:28;;;;;;;3.10;2.90;;;24.40;81.60;23.90;96424.00;;;;5046756;28;20219;-78
2023/08/15 03:02:57;;;;;;;2.80;2.50;;;24.40;81.60;23.90;96418.00;;;;5047701;28;20251;-77
2023/08/15 03:05:24;;;;;;;3.20;2.90;;;24.40;81.60;23.90;96413.00;;;;5049837;28;20217;-79
2023/08/15 03:07:51;;;;;;;3.83;2.70;;;24.40;81.60;23.90;96415.00;;;;5048507;28;20224;-77
2023/08/15 03:10:19;;;;;;;3.30;3.00;;;24.40;81.60;23.90;96416.00;;;;5049566;28;20196;-78
2023/08/15 03:12:48;;;;;;;2.97;2.77;;;24.40;81.50;23.80;96412.00;;;;5050069;28;20201;-78
2023/08/15 03:15:15;;;;;;;2.97;2.60;;;24.30;81.50;23.80;96406.00;;;;5029732;28;20586;-78
2023/08/15 03:17:42;;;;;;;2.80;2.60;;;24.30;81.50;23.80;96408.00;;;;5049937;28;20208;-78
2023/08/15 03:20:13;;;;;;;3.10;2.90;;;24.30;81.50;23.80;96411.00;;;;5051378;28;20274;-78
2023/08/15 03:22:44;;;;;;;2.73;2.63;;;24.30;81.50;23.80;96413.00;;;;5050503;28;20204;-78
2023/08/15 03:25:11;;;;;;;3.13;2.47;;;24.30;81.70;23.70;96413.00;;;;5050407;28;20310;-78
2023/08/15 03:27:38;;;;;;;3.43;3.23;;;24.30;81.90;23.70;96413.00;;;;5052276;28;20717;-78
2023/08/15 03:30:08;;;;;;;3.13;2.93;;;24.30;82.00;23.70;96420.00;;;;5054516;28;20564;-78
2023/08/15 03:32:36;;;;;;;3.13;2.93;;;24.20;82.10;23.70;96430.00;;;;5054659;28;20298;-78
2023/08/15 03:35:04;;;;;;;2.90;2.70;;;24.20;82.90;23.70;96425.00;;;;5055346;28;20565;-78
2023/08/15 03:37:32;;;;;;;3.13;2.80;;;24.20;82.30;23.70;96431.00;;;;5055834;28;20294;-77
2023/08/15 03:39:59;;;;;;;3.03;2.83;;;24.20;82.20;23.70;96424.00;;;;5055183;28;20205;-78
2023/08/15 03:42:27;;;;;;;2.80;2.60;;;24.10;82.10;23.60;96425.00;;;;5055470;28;20292;-78
2023/08/15 03:44:55;;;;;;;2.90;2.37;;;24.10;82.10;23.60;96433.00;;;;5054099;28;20228;-77
2023/08/15 03:47:23;;;;;;;2.60;2.50;;;24.10;82.10;23.60;96432.00;;;;5046336;28;20250;-77
2023/08/15 03:49:50;;;;;;;3.23;3.03;;;24.10;82.10;23.60;96430.00;;;;5055727;28;20314;-78
2023/08/15 03:52:19;;;;;;;4.23;2.83;;;24.10;82.00;23.60;96437.00;;;;5053894;28;20203;-78
2023/08/15 03:54:47;;;;;;;3.30;3.03;;;24.10;82.00;23.50;96430.00;;;;5053523;28;20731;-78
2023/08/15 03:57:15;;;;;;;3.30;3.10;;;24.00;81.60;23.50;96435.00;;;;5053224;28;20201;-78
2023/08/15 03:59:42;;;;;;;2.90;2.70;;;24.00;81.70;23.50;96440.00;;;;5052650;28;20279;-77
2023/08/15 04:02:09;;;;;;;3.03;2.83;;;24.00;81.80;23.50;96437.00;;;;5054144;28;20224;-77
2023/08/15 04:04:38;;;;;;;3.60;3.30;;;24.00;81.90;23.40;96439.00;;;;5054444;28;20275;-78
2023/08/15 04:07:05;;;;;;;3.00;2.80;;;23.90;82.00;23.40;96450.00;;;;5056270;28;20221;-78
2023/08/15 04:09:33;;;;;;;3.67;3.37;;;23.90;82.00;23.40;96443.00;;;;5056291;28;20197;-77
2023/08/15 04:12:02;;;;;;;3.43;3.13;;;23.90;82.20;23.40;96442.00;;;;5055964;28;20764;-78
2023/08/15 04:14:29;;;;;;;3.40;3.10;;;23.90;82.30;23.40;96441.00;;;;5054595;28;20311;-78
2023/08/15 04:16:56;;;;;;;3.87;3.23;;;23.90;83.20;23.40;96445.00;;;;5054523;28;20199;-77
2023/08/15 04:19:23;;;;;;;3.63;3.33;;;23.90;82.60;23.40;96446.00;;;;5054712;28;20197;-77
2023/08/15 04:21:50;;;;;;;3.57;3.17;;;23.90;82.70;23.40;96442.00;;;;5054427;28;20279;-77
2023/08/15 04:24:19;;;;;;;3.00;2.80;;;23.80;82.70;23.40;96443.00;;;;5054394;28;20311;-77
2023/08/15 04:26:46;;;;;;;3.23;3.03;;;23.80;82.70;23.40;96449.00;;;;5054379;28;20207;-78
2023/08/15 04:29:15;;;;;;;3.70;3.40;;;23.80;82.70;23.40;96447.00;;;;5054447;28;20272;-77
2023/08/15 04:31:42;;;;;;;3.70;3.37;;;23.80;82.70;23.40;96456.00;;;;5054711;28;20296;-78
2023/08/15 04:34:10;;;;;;;3.40;3.20;;;23.80;82.80;23.40;96453.00;;;;5054736;28;20239;-78
2023/08/15 04:36:37;;;;;;;4.73;3.33;;;23.80;82.80;23.40;96455.00;;;;5054544;28;20549;-77
2023/08/15 04:39:05;;;;;;;2.77;2.57;;;23.80;82.90;23.40;96457.00;;;;5053905;28;20208;-78
2023/08/15 04:41:32;;;;;;;3.50;3.20;;;23.80;82.80;23.40;96463.00;;;;5054409;28;20205;-77
2023/08/15 04:43:59;;;;;;;3.20;3.00;;;23.80;82.80;23.30;96460.00;;;;5053265;28;20220;-78
2023/08/15 04:46:28;;;;;;;3.00;2.70;;;23.80;82.70;23.30;96461.00;;;;5035925;28;20291;-78
2023/08/15 04:48:55;;;;;;;2.77;2.67;;;23.80;82.70;23.30;96457.00;;;;5053414;28;20228;-77
2023/08/15 04:51:24;;;;;;;3.10;2.90;;;23.80;82.70;23.30;96458.00;;;;5052899;28;20235;-77
2023/08/15 04:53:51;;;;;;;3.30;3.00;;;23.80;82.80;23.30;96459.00;;;;5052102;28;20292;-77
2023/08/15 04:56:18;;;;;;;3.20;3.00;;;23.80;82.80;23.30;96455.00;;;;5051495;28;20214;-78
2023/08/15 04:58:46;;;;;;;3.83;3.17;;;23.80;83.00;23.30;96462.00;;;;5051507;28;20212;-77
2023/08/15 05:01:13;;;;;;;4.10;3.73;;;23.80;83.10;23.30;96455.00;;;;5046267;28;20676;-78
2023/08/15 05:03:42;;;;;;;3.83;3.63;;;23.80;83.20;23.30;96461.00;;;;5054856;28;20279;-78
2023/08/15 05:06:10;;;;;;;4.70;3.63;;;23.80;83.20;23.30;96463.00;;;;5053548;28;20193;-76
2023/08/15 05:08:38;;;;;;;4.77;3.63;;;23.80;83.40;23.30;96457.00;;;;5054896;28;20311;-78
2023/08/15 05:11:05;;;;;;;3.67;3.47;;;23.80;84.30;23.30;96468.00;;;;5056495;28;20292;-78
2023/08/15 05:13:32;;;;;;;4.00;3.70;;;23.80;83.70;23.30;96473.00;;;;5038417;28;20283;-77
2023/08/15 05:16:00;;;;;;;3.43;3.20;;;23.80;83.80;23.30;96484.00;;;;5056964;28;20220;-78
2023/08/15 05:18:28;;;;;;;3.03;2.83;;;23.80;83.80;23.40;96484.00;;;;5056803;28;20591;-77
2023/08/15 05:20:57;;;;;;;3.43;3.23;;;23.80;83.90;23.40;96490.00;;;;5056981;28;20773;-77
2023/08/15 05:23:24;;;;;;;5.00;4.60;;;23.80;84.10;23.40;96497.00;;;;5055366;28;20189;-77
2023/08/15 05:25:51;;;;;;;4.60;4.13;;;23.90;84.50;23.40;96497.00;;;;5056204;28;20307;-77
2023/08/15 05:28:19;;;;;;;4.33;4.03;;;23.90;84.80;23.40;96493.00;;;;5056217;28;20589;-77
2023/08/15 05:30:46;;;;;;;4.50;4.20;;;23.90;85.10;23.50;96498.00;;;;5056460;28;20200;-78
2023/08/15 05:33:13;;;;;;;5.03;4.63;;;23.90;85.30;23.50;96500.00;;;;5056013;28;20756;-77
2023/08/15 05:35:42;;;;;;;4.43;4.03;;;23.90;85.60;23.60;96506.00;;;;5055959;28;20217;-77
2023/08/15 05:38:10;;;;;;;4.57;4.17;;;24.00;85.80;23.60;96502.00;;;;5052596;28;20197;-78
2023/08/15 05:40:39;;;;;;;3.77;3.57;;;24.00;85.90;23.70;96510.00;;;;5053082;28;20650;-77
2023/08/15 05:43:06;;;;;;;3.90;3.70;;;24.00;86.00;23.70;96509.00;;;;5050525;28;20205;-78
2023/08/15 05:45:33;;;;;;;4.50;4.20;;;24.10;86.20;23.80;96508.00;;;;5050539;28;20214;-77
2023/08/15 05:48:01;;;;;;;4.00;3.70;;;24.10;86.20;23.80;96507.00;;;;5050851;28;20231;-77
2023/08/15 05:50:28;;;;;;;3.90;3.60;;;24.20;86.40;23.90;96507.00;;;;5051620;28;20199;-77
2023/08/15 05:52:55;;;;;;;4.40;4.10;;;24.30;86.50;23.90;96512.00;;;;5049871;28;20204;-77
2023/08/15 05:55:24;;;;;;;4.40;4.10;;;24.30;86.50;24.00;96512.00;;;;5049704;28;20303;-77
2023/08/15 05:57:52;;;;;;;4.00;3.80;;;24.30;86.30;24.00;96503.00;;;;5049790;28;20700;-78
2023/08/15 06:00:19;;;;;;;4.47;4.07;;;24.40;86.40;24.10;96506.00;;;;5050964;28;20201;-78
2023/08/15 06:02:47;;;;;;;4.10;3.90;;;24.40;86.40;24.20;96511.00;;;;5034910;28;20200;-78
2023/08/15 06:05:15;;;;;;;4.30;3.97;;;24.50;86.40;24.20;96508.00;;;;5052691;28;20291;-78
2023/08/15 06:07:42;;;;;;;3.73;3.53;;;24.60;86.20;24.30;96512.00;;;;5052530;28;20308;-77
2023/08/15 06:10:10;;;;;;;3.73;3.43;;;24.60;86.20;24.40;96518.00;;;;5052581;28;20205;-77
2023/08/15 06:12:39;;;;;;;4.07;3.77;;;24.70;86.20;24.40;96516.00;;;;5052560;28;20291;-77
2023/08/15 06:15:07;;;;;;;3.83;3.60;;;24.70;85.90;24.50;96522.00;;;;5053170;28;20676;-79
2023/08/15 06:17:34;;;;;;;4.07;3.77;;;24.80;85.90;24.50;96530.00;;;;5053802;28;20750;-79
2023/08/15 06:20:03;;;;;;;3.67;3.47;;;24.90;85.90;24.60;96532.00;;;;5053207;28;20196;-78
2023/08/15 06:22:30;;;;;;;4.10;3.80;;;24.90;85.70;24.70;96532.00;;;;5053115;28;20207;-78
2023/08/15 06:24:57;;;;;;;3.80;3.50;;;25.00;85.60;24.80;96529.00;;;;5054361;28;20236;-79
2023/08/15 06:27:24;;;;;;;3.23;3.00;;;25.10;85.30;24.80;96530.00;;;;5054953;28;20228;-79
2023/08/15 06:29:53;;;;;;;3.57;3.27;;;25.10;85.20;24.90;96534.00;;;;5055604;28;20192;-79
2023/08/15 06:32:27;;;;;;;4.07;3.20;;;25.20;85.10;25.00;96529.00;;;;5059204;28;20605;-78
2023/08/15 06:34:55;;;;;;;3.63;3.43;;;25.30;84.80;25.10;96529.00;;;;5060213;28;20224;-79
2023/08/15 06:37:24;;;;;;;3.73;3.43;;;25.30;84.90;25.10;96523.00;;;;5058931;28;20196;-78
2023/08/15 06:39:51;;;;;;;3.63;3.33;;;25.40;84.50;25.20;96528.00;;;;5055550;28;20287;-79
2023/08/15 06:42:19;;;;;;;3.20;2.90;;;25.40;84.70;25.20;96525.00;;;;5052929;28;20285;-78
2023/08/15 06:44:46;;;;;;;3.43;3.23;;;25.50;84.40;25.30;96534.00;;;;5052169;28;20279;-79
2023/08/15 06:47:15;;;;;;;3.17;2.83;;;25.60;84.30;25.40;96530.00;;;;5052691;28;20197;-79
2023/08/15 06:49:42;;;;;;;3.40;3.20;;;25.60;84.00;25.50;96525.00;;;;5052142;28;20205;-79
2023/08/15 06:52:10;;;;;;;3.83;3.53;;;25.70;84.00;25.50;96521.00;;;;5052540;28;20725;-79
2023/08/15 06:54:37;;;;;;;3.13;2.93;;;25.80;83.60;25.60;96527.00;;;;5050981;28;20259;-78
2023/08/15 06:57:07;;;;;;;3.30;3.10;;;25.80;83.10;25.60;96525.00;;;;5051807;28;20196;-79
2023/08/15 06:59:35;;;;;;;3.40;3.10;;;25.90;82.70;25.70;96526.00;;;;5049950;28;20694;-79
2023/08/15 07:02:03;;;;;;;3.27;3.07;;;26.00;82.80;25.80;96530.00;;;;5046026;28;20208;-79
2023/08/15 07:04:32;;;;;;;3.27;2.97;;;26.00;82.60;25.80;96535.00;;;;5053370;28;20216;-79
2023/08/15 07:07:01;;;;;;;3.30;3.00;;;26.00;82.30;25.90;96539.00;;;;5052264;28;20288;-79
2023/08/15 07:09:29;;;;;;;3.53;3.10;;;26.20;82.70;26.00;96534.00;;;;5053748;28;20217;-79
2023/08/15 07:11:56;;;;;;;3.30;3.00;;;26.20;82.70;26.00;96535.00;;;;5036359;28;20200;-79
2023/08/15 07:14:23;;;;;;;3.27;3.07;;;26.30;82.30;26.10;96529.00;;;;5053797;28;20236;-79
2023/08/15 07:16:51;;;;;;;3.00;2.80;;;26.30;82.30;26.20;96530.00;;;;5054218;28;20239;-79
2023/08/15 07:19:18;;;;;;;3.37;3.17;;;26.40;82.30;26.30;96530.00;;;;5052451;28;20266;-79
2023/08/15 07:21:47;;;;;;;3.47;3.27;;;26.50;82.40;26.40;96529.00;;;;5052066;28;20351;-79
2023/08/15 07:24:14;;;;;;;3.40;3.10;;;26.60;82.20;26.50;96537.00;;;;5052377;28;20216;-79
2023/08/15 07:26:43;;;;;;;3.17;2.97;;;26.70;82.00;26.60;96537.00;;;;5053379;28;20196;-79
2023/08/15 07:29:10;;;;;;;3.28;3.08;;;26.80;82.00;26.70;96539.00;;;;5053185;28;20222;-80
2023/08/15 07:31:37;;;;;;;3.77;3.17;;;26.80;82.00;26.80;96543.00;;;;5053285;28;20200;-79
2023/08/15 07:34:05;;;;;;;4.18;3.35;;;26.90;82.40;26.90;96548.00;;;;5050912;28;20212;-80
2023/08/15 07:36:32;;;;;;;3.47;3.17;;;27.00;82.00;27.00;96544.00;;;;5052588;28;20203;-80
2023/08/15 07:39:01;;;;;;;3.25;3.05;;;27.10;82.10;27.10;96538.00;;;;5051483;28;20712;-79
2023/08/15 07:41:28;;;;;;;3.17;2.97;;;27.20;82.20;27.20;96539.00;;;;5051114;28;20197;-79
2023/08/15 07:43:55;;;;;;;2.88;2.67;;;27.30;81.70;27.30;96542.00;;;;5051228;28;20303;-79
2023/08/15 07:46:27;;;;;;;4.05;3.75;;;27.40;81.60;27.40;96550.00;;;;5050768;28;20834;-79
2023/08/15 07:48:55;;;;;;;2.95;2.75;;;27.50;81.60;27.50;96553.00;;;;5050170;28;20274;-78
2023/08/15 07:51:24;;;;;;;4.47;4.05;;;27.60;81.80;27.60;96545.00;;;;5049787;28;20197;-79
2023/08/15 07:53:51;;;;;;;3.38;3.17;;;27.70;81.60;27.70;96554.00;;;;5051697;28;20204;-79
2023/08/15 07:56:20;;;;;;;3.40;3.10;;;27.80;81.30;27.80;96546.00;;;;5051790;28;20220;-79
2023/08/15 07:58:48;;;;;;;3.55;3.30;;;27.90;81.00;27.90;96554.00;;;;5053780;28;20228;-79
2023/08/15 08:01:16;;;;;;;3.28;3.03;;;28.00;81.00;28.00;96555.00;;;;5048567;28;20289;-80
2023/08/15 08:03:43;;;;;;;3.22;3.03;;;28.10;81.10;28.10;96550.00;;;;5050599;28;20581;-78
2023/08/15 08:06:11;;;;;;;3.65;3.35;;;28.30;80.30;28.20;96551.00;;;;5054472;28;20204;-79
2023/08/15 08:08:39;;;;;;;3.42;3.22;;;28.30;79.50;28.30;96550.00;;;;5054149;28;20244;-80
2023/08/15 08:11:06;;;;;;;3.45;3.15;;;28.40;80.00;28.40;96552.00;;;;5067493;28;20256;-78
2023/08/15 08:13:35;;;;;;;3.47;3.20;;;28.50;79.50;28.50;96550.00;;;;5053679;28;20280;-79
2023/08/15 08:16:02;;;;;;;3.42;3.13;;;28.60;78.70;28.60;96553.00;;;;5042193;28;20288;-79
2023/08/15 08:18:30;;;;;;;3.58;3.28;;;28.70;79.40;28.70;96556.00;;;;5059667;28;20201;-80
2023/08/15 08:20:57;;;;;;;3.58;3.33;;;28.80;79.60;28.80;96559.00;;;;5059788;28;20224;-79
2023/08/15 08:23:25;;;;;;;3.45;3.25;;;28.90;79.40;28.90;96562.00;;;;5074585;28;20689;-80
2023/08/15 08:25:52;;;;;;;3.05;2.85;;;29.00;79.10;29.00;96560.00;;;;5053526;28;20388;-80
2023/08/15 08:28:20;;;;;;;3.97;3.38;;;29.10;79.50;29.20;96563.00;;;;5065089;28;20248;-80
2023/08/15 08:30:49;;;;;;;2.95;2.78;;;29.30;79.30;29.20;96561.00;;;;5058657;28;20205;-79
2023/08/15 08:33:18;;;;;;;3.45;3.25;;;29.40;78.80;29.40;96566.00;;;;5058457;28;20287;-78
2023/08/15 08:35:45;;;;;;;2.97;2.78;;;29.40;79.00;29.50;96571.00;;;;5058722;28;20240;-79
2023/08/15 08:38:13;;;;;;;2.85;2.72;;;29.60;78.60;29.60;96575.00;;;;5066070;28;20197;-79
2023/08/15 08:40:43;;;;;;;3.05;2.85;;;29.70;78.90;29.70;96576.00;;;;5061765;28;20189;-78
2023/08/15 08:43:11;;;;;;;3.28;3.08;;;29.80;78.90;29.80;96572.00;;;;5061729;28;20447;-78
2023/08/15 08:45:41;;;;;;;3.05;2.85;;;29.90;78.40;30.00;96576.00;;;;5061449;28;20228;-79
2023/08/15 08:48:11;;;;;;;3.15;2.95;;;30.10;77.50;30.10;96573.00;;;;5061252;28;20193;-78
2023/08/15 08:50:39;;;;;;;3.30;3.10;;;30.20;77.30;30.30;96583.00;;;;5062672;28;20564;-79
2023/08/15 08:53:07;;;;;;;3.55;3.35;;;30.30;76.90;30.40;96584.00;;;;5058115;28;20208;-79
2023/08/15 08:55:36;;;;;;;3.03;2.83;;;30.40;76.70;30.60;96581.00;;;;5037970;28;20221;-79
2023/08/15 08:58:05;;;;;;;3.20;3.00;;;30.60;77.20;30.80;96580.00;;;;5052413;28;20287;-78
2023/08/15 09:00:36;;;;;;;2.83;2.65;;;30.70;76.40;30.90;96575.00;;;;5055377;28;20197;-79
2023/08/15 09:03:04;;;;;;;3.13;2.92;;;30.80;75.80;31.00;96573.00;;;;5046468;28;20197;-78
2023/08/15 09:05:34;;;;;;;3.28;3.08;;;31.00;76.00;31.20;96576.00;;;;5053107;28;20209;-78
2023/08/15 09:08:03;;;;;;;3.20;3.00;;;31.10;74.70;31.30;96575.00;;;;5054014;28;20201;-79
2023/08/15 09:10:31;;;;;;;3.53;3.33;;;31.30;74.60;31.40;96571.00;;;;5052953;28;20189;-79
2023/08/15 09:13:00;;;;;;;3.58;3.28;;;31.40;73.80;31.50;96571.00;;;;5053430;28;20199;-79
2023/08/15 09:15:29;;;;;;;3.63;3.33;;;31.50;73.30;31.60;96574.00;;;;5054499;28;20212;-80
2023/08/15 09:18:01;;;;;;;3.78;3.40;;;31.60;72.40;31.70;96575.00;;;;5053725;28;20296;-79
2023/08/15 09:20:29;;;;;;;3.45;3.25;;;31.70;71.10;31.90;96576.00;;;;5053675;28;20250;-78
2023/08/15 09:23:00;;;;;;;3.15;2.95;;;31.80;72.10;32.00;96575.00;;;;5054514;28;20303;-78
2023/08/15 09:25:29;;;;;;;3.35;3.10;;;31.90;71.90;32.10;96576.00;;;;5053488;28;20650;-79
2023/08/15 09:27:57;;;;;;;3.65;3.33;;;32.00;72.50;32.20;96568.00;;;;5053355;28;20260;-79
2023/08/15 09:30:24;;;;;;;3.60;3.40;;;32.20;73.20;32.30;96571.00;;;;5052831;28;20221;-78
2023/08/15 09:32:52;;;;;;;3.78;3.10;;;32.30;72.00;32.40;96563.00;;;;5051943;28;20207;-78
2023/08/15 09:35:20;;;;;;;3.85;3.65;;;32.40;71.20;32.50;96566.00;;;;5045354;28;20213;-79
2023/08/15 09:37:48;;;;;;;3.40;3.20;;;32.50;70.40;32.60;96566.00;;;;5048739;28;20293;-78
2023/08/15 09:40:22;;;;;;;4.50;3.22;;;32.60;70.10;32.70;96568.00;;;;5051986;28;20283;-79
2023/08/15 09:42:50;;;;;;;2.95;2.75;;;32.70;69.00;32.80;96564.00;;;;5052411;28;20193;-79
2023/08/15 09:45:18;;;;;;;3.20;3.00;;;32.80;70.00;32.90;96563.00;;;;5053122;28;20216;-79
2023/08/15 09:47:54;;;;;;;3.10;2.92;;;32.90;69.40;33.00;96560.00;;;;5053976;28;20288;-79
2023/08/15 09:50:22;;;;;;;4.50;3.20;;;33.00;69.60;33.20;96559.00;;;;5047314;28;20252;-79
2023/08/15 09:52:49;;;;;;;3.47;3.17;;;33.10;68.60;33.30;96556.00;;;;5034488;28;20311;-79
2023/08/15 09:55:18;;;;;;;3.67;3.47;;;33.20;68.90;33.40;96557.00;;;;5052538;28;20233;-79
2023/08/15 09:57:50;;;;;;;3.33;3.13;;;33.40;68.50;33.50;96562.00;;;;5052508;28;20652;-79
2023/08/15 10:00:17;;;;;;;3.55;3.25;;;33.40;69.30;33.60;96560.00;;;;5053263;28;20200;-79
2023/08/15 10:02:52;;;;;;;3.47;3.28;;;33.60;69.00;33.70;96556.00;;;;5052748;28;20769;-80
2023/08/15 10:05:23;;;;;;;3.42;3.22;;;33.60;68.00;33.80;96555.00;;;;5052201;28;20296;-80
2023/08/15 10:07:51;;;;;;;3.22;3.00;;;33.80;68.10;33.90;96551.00;;;;5058451;28;20219;-80
2023/08/15 10:10:22;;;;;;;3.63;3.38;;;33.90;68.30;34.00;96552.00;;;;5051799;28;20224;-79
2023/08/15 10:12:52;;;;;;;3.55;3.35;;;34.00;67.90;34.10;96552.00;;;;5051576;28;20640;-79
2023/08/15 10:15:21;;;;;;;3.40;3.10;;;34.10;66.80;34.30;96556.00;;;;5052043;28;20213;-79
2023/08/15 10:17:49;;;;;;;3.50;3.30;;;34.20;66.50;34.40;96554.00;;;;5052781;28;20255;-80
2023/08/15 10:20:19;;;;;;;3.30;3.10;;;34.40;66.50;34.50;96556.00;;;;5053758;28;20215;-79
2023/08/15 10:22:51;;;;;;;3.67;3.38;;;34.50;65.90;34.60;96553.00;;;;5052812;28;20730;-79
2023/08/15 10:25:37;;;;;;;2.97;2.78;;;34.60;65.40;34.70;96547.00;;;;5051018;28;20591;-79
2023/08/15 10:28:11;;;;;;;2.95;2.75;;;34.80;66.00;34.80;96550.00;;;;5049235;28;20292;-79
2023/08/15 10:30:42;;;;;;;3.33;3.13;;;34.90;64.90;34.90;96551.00;;;;5050831;28;20708;-79
2023/08/15 10:33:18;;;;;;;3.20;3.00;;;35.00;63.80;35.00;96553.00;;;;5050462;28;20228;-78
2023/08/15 10:36:07;;;;;;;3.05;2.80;;;35.10;62.70;35.10;96550.00;;;;5050328;28;20845;-78
2023/08/15 10:38:40;;;;;;;3.50;3.20;;;35.20;61.50;35.20;96552.00;;;;5049201;28;20203;-78
2023/08/15 10:41:16;;;;;;;3.60;3.35;;;35.40;65.10;35.30;96546.00;;;;5044333;28;20275;-78
2023/08/15 10:43:48;;;;;;;3.40;3.10;;;35.50;62.10;35.40;96546.00;;;;5043910;28;20209;-79
2023/08/15 10:46:18;;;;;;;2.97;2.58;;;35.60;63.60;35.50;96548.00;;;;5044938;28;20204;-78
2023/08/15 10:48:49;;;;;;;3.00;2.83;;;35.70;63.60;35.60;96552.00;;;;5051411;28;20220;-78
2023/08/15 10:51:19;;;;;;;3.70;3.40;;;35.80;63.20;35.70;96556.00;;;;5052601;28;20238;-78
2023/08/15 10:53:49;;;;;;;3.50;3.30;;;35.80;62.60;35.70;96558.00;;;;5034309;28;20239;-79
2023/08/15 10:56:24;;;;;;;5.18;3.30;;;35.90;62.30;35.70;96560.00;;;;5052717;28;20193;-78
2023/08/15 10:58:53;;;;;;;3.15;2.95;;;36.00;59.60;35.70;96555.00;;;;5048134;28;20666;-78
2023/08/15 11:01:22;;;;;;;2.95;2.75;;;36.00;61.00;35.70;96559.00;;;;5052870;28;20192;-78